Portada
METAR-TAF:

METAR-TAF

Aeroports :

Spirit of St Louis Airport

Saint Louis, Missouri, Estats Units d'Amèrica

latitud: 38-39-26N, longitud: 090-39-21W, altitud: 141 m

Observació

L'informe es va fer fa 48 minuts, a les 17:54 UTC
Vent 4 kt amb direcció variable
Temperatura 15°C
Humitat 39%
Pressió 1022 hPa
Visibilitat: 16.1 km
Cel ennuvolat a una alçada de 10000 ft

METAR: KSUS 131754Z VRB04KT 10SM BKN100 15/01 A3019 RMK AO2 SLP223 T01500006 10150 20100 58005

Hora: 13:42 (18:42 UTC)

Pronòstic

L'informe es va fer fa 1 hora i 22 minuts, a les 17:20 UTC
Pronòstic vàlid del 13 a les 18 UTC al 14 a les 18 UTC
Vent 7 kt del Oest/Nord-Oest
Visibilitat: 10 km
Cel ennuvolat a una alçada de 25000 ft

TAF: KSUS 131720Z 1318/1418 30007KT P6SM BKN250

Observacions i pronòstics meteorològics de més de 4000 aeroports (METAR i TAF).

Les estacions disponibles són els punts grocs i vermells al mapa.

Posi el ratolí al punt desitjat per veure el nom de l'estació.

Feu clic per veure les observacions i els pronòstics meteorològics.

Per canviar el mapa: feu clic els botons verds amb una creu de color negre per apropar; al botó verd amb un guió per allunyar la imatge; o en les fletxes verdes per a mapes adjacents.


METAR-TAF: